sensor_id;sensor_type;location;lat;lon;timestamp;temperature;humidity
68556;HTU21D;55544;51.032;5.866;2023-07-28T00:02:11;19.15;88.69
68556;HTU21D;55544;51.032;5.866;2023-07-28T00:04:37;19.16;88.73
68556;HTU21D;55544;51.032;5.866;2023-07-28T00:07:04;19.16;88.63
68556;HTU21D;55544;51.032;5.866;2023-07-28T00:09:30;19.17;88.66
68556;HTU21D;55544;51.032;5.866;2023-07-28T00:11:57;19.18;88.58
68556;HTU21D;55544;51.032;5.866;2023-07-28T00:14:23;19.15;88.86
68556;HTU21D;55544;51.032;5.866;2023-07-28T00:16:54;19.15;88.83
68556;HTU21D;55544;51.032;5.866;2023-07-28T00:19:20;19.13;88.94
68556;HTU21D;55544;51.032;5.866;2023-07-28T00:21:50;19.13;88.96
68556;HTU21D;55544;51.032;5.866;2023-07-28T00:24:17;19.13;88.96
68556;HTU21D;55544;51.032;5.866;2023-07-28T00:26:43;19.15;88.92
68556;HTU21D;55544;51.032;5.866;2023-07-28T00:29:10;19.14;89.05
68556;HTU21D;55544;51.032;5.866;2023-07-28T00:31:36;19.15;88.95
68556;HTU21D;55544;51.032;5.866;2023-07-28T00:34:03;19.16;88.83
68556;HTU21D;55544;51.032;5.866;2023-07-28T00:36:29;19.18;88.86
68556;HTU21D;55544;51.032;5.866;2023-07-28T00:38:55;19.15;88.99
68556;HTU21D;55544;51.032;5.866;2023-07-28T00:41:22;19.13;89.21
68556;HTU21D;55544;51.032;5.866;2023-07-28T00:43:48;19.16;89.10
68556;HTU21D;55544;51.032;5.866;2023-07-28T00:46:14;19.18;88.99
68556;HTU21D;55544;51.032;5.866;2023-07-28T00:48:41;19.22;88.77
68556;HTU21D;55544;51.032;5.866;2023-07-28T00:51:08;19.21;88.70
68556;HTU21D;55544;51.032;5.866;2023-07-28T00:53:34;19.21;88.96
68556;HTU21D;55544;51.032;5.866;2023-07-28T00:56:01;19.21;89.06
68556;HTU21D;55544;51.032;5.866;2023-07-28T00:58:27;19.22;88.96
68556;HTU21D;55544;51.032;5.866;2023-07-28T01:00:54;19.22;88.94
68556;HTU21D;55544;51.032;5.866;2023-07-28T01:03:20;19.21;89.12
68556;HTU21D;55544;51.032;5.866;2023-07-28T01:09:33;19.30;88.65
68556;HTU21D;55544;51.032;5.866;2023-07-28T01:14:20;19.27;88.73
68556;HTU21D;55544;51.032;5.866;2023-07-28T01:16:46;19.24;88.99
68556;HTU21D;55544;51.032;5.866;2023-07-28T01:19:16;19.24;89.05
68556;HTU21D;55544;51.032;5.866;2023-07-28T01:21:48;19.24;89.18
68556;HTU21D;55544;51.032;5.866;2023-07-28T01:24:24;19.30;88.65
68556;HTU21D;55544;51.032;5.866;2023-07-28T01:26:54;19.24;89.09
68556;HTU21D;55544;51.032;5.866;2023-07-28T01:29:22;19.23;89.21
68556;HTU21D;55544;51.032;5.866;2023-07-28T01:31:48;19.23;89.15
68556;HTU21D;55544;51.032;5.866;2023-07-28T01:34:14;19.23;89.31
68556;HTU21D;55544;51.032;5.866;2023-07-28T01:36:39;19.18;89.62
68556;HTU21D;55544;51.032;5.866;2023-07-28T01:39:05;19.25;89.58
68556;HTU21D;55544;51.032;5.866;2023-07-28T01:41:31;19.17;89.86
68556;HTU21D;55544;51.032;5.866;2023-07-28T01:43:56;19.14;89.91
68556;HTU21D;55544;51.032;5.866;2023-07-28T01:46:23;19.12;90.14
68556;HTU21D;55544;51.032;5.866;2023-07-28T01:48:48;19.10;90.27
68556;HTU21D;55544;51.032;5.866;2023-07-28T01:51:14;19.12;90.46
68556;HTU21D;55544;51.032;5.866;2023-07-28T01:53:40;19.09;90.64
68556;HTU21D;55544;51.032;5.866;2023-07-28T01:56:05;19.07;90.73
68556;HTU21D;55544;51.032;5.866;2023-07-28T01:58:31;19.11;90.78
68556;HTU21D;55544;51.032;5.866;2023-07-28T02:00:57;19.11;90.73
68556;HTU21D;55544;51.032;5.866;2023-07-28T02:03:23;19.09;91.02
68556;HTU21D;55544;51.032;5.866;2023-07-28T02:05:48;19.08;90.98
68556;HTU21D;55544;51.032;5.866;2023-07-28T02:08:15;19.07;91.17
68556;HTU21D;55544;51.032;5.866;2023-07-28T02:10:40;19.08;91.18
68556;HTU21D;55544;51.032;5.866;2023-07-28T02:13:06;19.09;91.22
68556;HTU21D;55544;51.032;5.866;2023-07-28T02:15:32;19.09;91.31
68556;HTU21D;55544;51.032;5.866;2023-07-28T02:17:57;19.11;91.21
68556;HTU21D;55544;51.032;5.866;2023-07-28T02:20:23;19.11;91.23
68556;HTU21D;55544;51.032;5.866;2023-07-28T02:22:49;19.10;91.22
68556;HTU21D;55544;51.032;5.866;2023-07-28T02:25:15;19.09;91.39
68556;HTU21D;55544;51.032;5.866;2023-07-28T02:27:40;19.12;91.27
68556;HTU21D;55544;51.032;5.866;2023-07-28T02:30:07;19.10;91.38
68556;HTU21D;55544;51.032;5.866;2023-07-28T02:32:33;19.10;91.52
68556;HTU21D;55544;51.032;5.866;2023-07-28T02:34:58;19.13;91.34
68556;HTU21D;55544;51.032;5.866;2023-07-28T02:37:25;19.10;91.40
68556;HTU21D;55544;51.032;5.866;2023-07-28T02:39:51;19.09;91.55
68556;HTU21D;55544;51.032;5.866;2023-07-28T02:42:16;19.06;91.69
68556;HTU21D;55544;51.032;5.866;2023-07-28T02:44:42;19.07;91.76
68556;HTU21D;55544;51.032;5.866;2023-07-28T02:47:08;19.08;91.76
68556;HTU21D;55544;51.032;5.866;2023-07-28T02:49:34;19.05;91.82
68556;HTU21D;55544;51.032;5.866;2023-07-28T02:51:59;19.09;91.80
68556;HTU21D;55544;51.032;5.866;2023-07-28T02:54:25;19.07;91.97
68556;HTU21D;55544;51.032;5.866;2023-07-28T02:56:51;19.05;92.18
68556;HTU21D;55544;51.032;5.866;2023-07-28T02:59:17;19.11;91.90
68556;HTU21D;55544;51.032;5.866;2023-07-28T03:01:43;19.07;92.08
68556;HTU21D;55544;51.032;5.866;2023-07-28T03:04:09;19.05;92.17
68556;HTU21D;55544;51.032;5.866;2023-07-28T03:06:58;19.12;91.92
68556;HTU21D;55544;51.032;5.866;2023-07-28T03:09:24;19.11;92.03
68556;HTU21D;55544;51.032;5.866;2023-07-28T03:11:58;19.08;92.18
68556;HTU21D;55544;51.032;5.866;2023-07-28T03:14:24;19.10;92.08
68556;HTU21D;55544;51.032;5.866;2023-07-28T03:16:51;19.07;92.24
68556;HTU21D;55544;51.032;5.866;2023-07-28T03:19:17;19.14;91.97
68556;HTU21D;55544;51.032;5.866;2023-07-28T03:21:43;19.10;92.14
68556;HTU21D;55544;51.032;5.866;2023-07-28T03:24:09;19.07;92.39
68556;HTU21D;55544;51.032;5.866;2023-07-28T03:26:34;19.07;92.40
68556;HTU21D;55544;51.032;5.866;2023-07-28T03:29:00;19.10;92.49
68556;HTU21D;55544;51.032;5.866;2023-07-28T03:31:26;19.11;92.40
68556;HTU21D;55544;51.032;5.866;2023-07-28T03:33:52;19.07;92.42
68556;HTU21D;55544;51.032;5.866;2023-07-28T03:36:17;19.10;92.46
68556;HTU21D;55544;51.032;5.866;2023-07-28T03:38:45;19.14;92.38
68556;HTU21D;55544;51.032;5.866;2023-07-28T03:41:11;19.15;92.25
68556;HTU21D;55544;51.032;5.866;2023-07-28T03:43:37;19.12;92.40
68556;HTU21D;55544;51.032;5.866;2023-07-28T03:46:03;19.09;92.44
68556;HTU21D;55544;51.032;5.866;2023-07-28T03:48:29;19.09;92.43
68556;HTU21D;55544;51.032;5.866;2023-07-28T03:50:55;19.09;92.71
68556;HTU21D;55544;51.032;5.866;2023-07-28T03:53:20;19.11;92.66
68556;HTU21D;55544;51.032;5.866;2023-07-28T03:55:46;19.20;92.20
68556;HTU21D;55544;51.032;5.866;2023-07-28T03:58:12;19.12;92.50
68556;HTU21D;55544;51.032;5.866;2023-07-28T04:00:37;19.15;92.48
68556;HTU21D;55544;51.032;5.866;2023-07-28T04:03:03;19.16;92.63
68556;HTU21D;55544;51.032;5.866;2023-07-28T04:05:29;19.18;92.27
68556;HTU21D;55544;51.032;5.866;2023-07-28T04:07:54;19.20;92.34
68556;HTU21D;55544;51.032;5.866;2023-07-28T04:10:20;19.16;92.44
68556;HTU21D;55544;51.032;5.866;2023-07-28T04:12:46;19.17;92.58
68556;HTU21D;55544;51.032;5.866;2023-07-28T04:15:11;19.20;92.59
68556;HTU21D;55544;51.032;5.866;2023-07-28T04:17:37;19.22;92.43
68556;HTU21D;55544;51.032;5.866;2023-07-28T04:20:04;19.21;92.34
68556;HTU21D;55544;51.032;5.866;2023-07-28T04:22:29;19.22;92.44
68556;HTU21D;55544;51.032;5.866;2023-07-28T04:24:55;19.22;92.50
68556;HTU21D;55544;51.032;5.866;2023-07-28T04:27:21;19.24;92.52
68556;HTU21D;55544;51.032;5.866;2023-07-28T04:29:48;19.23;92.37
68556;HTU21D;55544;51.032;5.866;2023-07-28T04:32:19;19.21;92.47
68556;HTU21D;55544;51.032;5.866;2023-07-28T04:34:48;19.25;92.52
68556;HTU21D;55544;51.032;5.866;2023-07-28T04:37:16;19.23;92.66
68556;HTU21D;55544;51.032;5.866;2023-07-28T04:40:01;19.25;92.38
68556;HTU21D;55544;51.032;5.866;2023-07-28T04:42:33;19.25;92.41
68556;HTU21D;55544;51.032;5.866;2023-07-28T04:44:58;19.30;92.58
68556;HTU21D;55544;51.032;5.866;2023-07-28T04:47:24;19.25;92.56
68556;HTU21D;55544;51.032;5.866;2023-07-28T04:49:50;19.31;92.47
68556;HTU21D;55544;51.032;5.866;2023-07-28T04:52:34;19.29;92.50
68556;HTU21D;55544;51.032;5.866;2023-07-28T04:55:00;19.32;92.41
68556;HTU21D;55544;51.032;5.866;2023-07-28T04:57:26;19.31;92.47
68556;HTU21D;55544;51.032;5.866;2023-07-28T04:59:51;19.30;92.65
68556;HTU21D;55544;51.032;5.866;2023-07-28T05:02:17;19.29;92.57
68556;HTU21D;55544;51.032;5.866;2023-07-28T05:04:43;19.31;92.53
68556;HTU21D;55544;51.032;5.866;2023-07-28T05:07:09;19.36;92.41
68556;HTU21D;55544;51.032;5.866;2023-07-28T05:09:35;19.33;92.42
68556;HTU21D;55544;51.032;5.866;2023-07-28T05:12:00;19.32;92.63
68556;HTU21D;55544;51.032;5.866;2023-07-28T05:14:27;19.32;92.63
68556;HTU21D;55544;51.032;5.866;2023-07-28T05:16:52;19.31;92.75
68556;HTU21D;55544;51.032;5.866;2023-07-28T05:19:21;19.35;92.67
68556;HTU21D;55544;51.032;5.866;2023-07-28T05:22:05;19.35;92.72
68556;HTU21D;55544;51.032;5.866;2023-07-28T05:24:48;19.37;92.77
68556;HTU21D;55544;51.032;5.866;2023-07-28T05:27:14;19.39;92.75
68556;HTU21D;55544;51.032;5.866;2023-07-28T05:29:43;19.38;92.69
68556;HTU21D;55544;51.032;5.866;2023-07-28T05:32:09;19.41;92.65
68556;HTU21D;55544;51.032;5.866;2023-07-28T05:34:43;19.43;92.53
68556;HTU21D;55544;51.032;5.866;2023-07-28T05:37:10;19.43;92.44
68556;HTU21D;55544;51.032;5.866;2023-07-28T05:39:35;19.45;92.29
68556;HTU21D;55544;51.032;5.866;2023-07-28T05:42:02;19.42;92.61
68556;HTU21D;55544;51.032;5.866;2023-07-28T05:44:28;19.42;92.56
68556;HTU21D;55544;51.032;5.866;2023-07-28T05:46:54;19.42;92.41
68556;HTU21D;55544;51.032;5.866;2023-07-28T05:49:20;19.41;92.62
68556;HTU21D;55544;51.032;5.866;2023-07-28T05:51:46;19.39;92.74
68556;HTU21D;55544;51.032;5.866;2023-07-28T05:54:13;19.40;92.68
68556;HTU21D;55544;51.032;5.866;2023-07-28T05:56:41;19.44;92.62
68556;HTU21D;55544;51.032;5.866;2023-07-28T05:59:06;19.42;92.73
68556;HTU21D;55544;51.032;5.866;2023-07-28T06:01:32;19.41;92.82
68556;HTU21D;55544;51.032;5.866;2023-07-28T06:04:13;19.43;92.76
68556;HTU21D;55544;51.032;5.866;2023-07-28T06:06:44;19.48;92.50
68556;HTU21D;55544;51.032;5.866;2023-07-28T06:09:12;19.46;92.63
68556;HTU21D;55544;51.032;5.866;2023-07-28T06:11:38;19.51;92.66
68556;HTU21D;55544;51.032;5.866;2023-07-28T06:14:04;19.53;92.41
68556;HTU21D;55544;51.032;5.866;2023-07-28T06:16:33;19.53;92.32
68556;HTU21D;55544;51.032;5.866;2023-07-28T06:19:00;19.53;92.40
68556;HTU21D;55544;51.032;5.866;2023-07-28T06:21:25;19.52;92.56
68556;HTU21D;55544;51.032;5.866;2023-07-28T06:23:51;19.56;92.48
68556;HTU21D;55544;51.032;5.866;2023-07-28T06:26:17;19.60;92.34
68556;HTU21D;55544;51.032;5.866;2023-07-28T06:28:43;19.58;92.25
68556;HTU21D;55544;51.032;5.866;2023-07-28T06:31:09;19.60;92.08
68556;HTU21D;55544;51.032;5.866;2023-07-28T06:33:36;19.63;92.02
68556;HTU21D;55544;51.032;5.866;2023-07-28T06:36:03;19.63;91.84
68556;HTU21D;55544;51.032;5.866;2023-07-28T06:38:29;19.59;92.06
68556;HTU21D;55544;51.032;5.866;2023-07-28T06:40:54;19.62;92.13
68556;HTU21D;55544;51.032;5.866;2023-07-28T06:43:21;19.72;91.83
68556;HTU21D;55544;51.032;5.866;2023-07-28T06:45:50;19.72;91.75
68556;HTU21D;55544;51.032;5.866;2023-07-28T06:48:16;19.76;91.38
68556;HTU21D;55544;51.032;5.866;2023-07-28T06:50:43;19.77;91.64
68556;HTU21D;55544;51.032;5.866;2023-07-28T06:53:08;19.83;91.55
68556;HTU21D;55544;51.032;5.866;2023-07-28T06:55:34;19.87;91.47
68556;HTU21D;55544;51.032;5.866;2023-07-28T06:58:04;19.89;91.21
68556;HTU21D;55544;51.032;5.866;2023-07-28T07:00:29;19.90;91.13
68556;HTU21D;55544;51.032;5.866;2023-07-28T07:02:55;19.96;90.96
68556;HTU21D;55544;51.032;5.866;2023-07-28T07:05:21;19.97;90.98
68556;HTU21D;55544;51.032;5.866;2023-07-28T07:07:47;20.04;90.88
68556;HTU21D;55544;51.032;5.866;2023-07-28T07:10:12;20.06;90.71
68556;HTU21D;55544;51.032;5.866;2023-07-28T07:12:38;20.10;90.65
68556;HTU21D;55544;51.032;5.866;2023-07-28T07:15:05;20.17;90.34
68556;HTU21D;55544;51.032;5.866;2023-07-28T07:17:31;20.17;90.44
68556;HTU21D;55544;51.032;5.866;2023-07-28T07:19:57;20.18;90.13
68556;HTU21D;55544;51.032;5.866;2023-07-28T07:22:22;20.16;90.02
68556;HTU21D;55544;51.032;5.866;2023-07-28T07:24:49;20.17;90.05
68556;HTU21D;55544;51.032;5.866;2023-07-28T07:27:14;20.20;89.85
68556;HTU21D;55544;51.032;5.866;2023-07-28T07:29:40;20.21;89.70
68556;HTU21D;55544;51.032;5.866;2023-07-28T07:32:06;20.25;89.66
68556;HTU21D;55544;51.032;5.866;2023-07-28T07:34:34;20.29;89.60
68556;HTU21D;55544;51.032;5.866;2023-07-28T07:37:00;20.32;89.57
68556;HTU21D;55544;51.032;5.866;2023-07-28T07:39:26;20.32;89.50
68556;HTU21D;55544;51.032;5.866;2023-07-28T07:41:52;20.39;89.52
68556;HTU21D;55544;51.032;5.866;2023-07-28T07:44:18;20.44;89.32
68556;HTU21D;55544;51.032;5.866;2023-07-28T07:46:43;20.50;89.40
68556;HTU21D;55544;51.032;5.866;2023-07-28T07:49:09;20.58;89.26
68556;HTU21D;55544;51.032;5.866;2023-07-28T07:51:35;20.63;88.96
68556;HTU21D;55544;51.032;5.866;2023-07-28T07:54:00;20.74;89.01
68556;HTU21D;55544;51.032;5.866;2023-07-28T07:56:29;20.80;88.59
68556;HTU21D;55544;51.032;5.866;2023-07-28T07:58:55;20.92;88.43
68556;HTU21D;55544;51.032;5.866;2023-07-28T08:01:21;20.94;88.33
68556;HTU21D;55544;51.032;5.866;2023-07-28T08:03:47;21.00;87.98
68556;HTU21D;55544;51.032;5.866;2023-07-28T08:06:13;21.07;87.55
68556;HTU21D;55544;51.032;5.866;2023-07-28T08:08:39;21.11;87.93
68556;HTU21D;55544;51.032;5.866;2023-07-28T08:11:05;21.27;87.57
68556;HTU21D;55544;51.032;5.866;2023-07-28T08:13:33;21.35;87.34
68556;HTU21D;55544;51.032;5.866;2023-07-28T08:15:58;21.46;87.15
68556;HTU21D;55544;51.032;5.866;2023-07-28T08:18:24;21.62;86.46
68556;HTU21D;55544;51.032;5.866;2023-07-28T08:20:50;21.73;85.58
68556;HTU21D;55544;51.032;5.866;2023-07-28T08:23:15;21.77;84.78
68556;HTU21D;55544;51.032;5.866;2023-07-28T08:25:41;21.73;83.57
68556;HTU21D;55544;51.032;5.866;2023-07-28T08:28:07;21.65;84.48
68556;HTU21D;55544;51.032;5.866;2023-07-28T08:30:32;21.67;84.13
68556;HTU21D;55544;51.032;5.866;2023-07-28T08:32:58;21.68;84.41
68556;HTU21D;55544;51.032;5.866;2023-07-28T08:35:24;21.74;85.06
68556;HTU21D;55544;51.032;5.866;2023-07-28T08:37:50;21.98;84.39
68556;HTU21D;55544;51.032;5.866;2023-07-28T08:40:16;22.10;83.23
68556;HTU21D;55544;51.032;5.866;2023-07-28T08:42:42;22.08;83.16
68556;HTU21D;55544;51.032;5.866;2023-07-28T08:45:08;22.11;82.70
68556;HTU21D;55544;51.032;5.866;2023-07-28T08:47:35;22.20;83.46
68556;HTU21D;55544;51.032;5.866;2023-07-28T08:50:01;22.26;82.67
68556;HTU21D;55544;51.032;5.866;2023-07-28T08:52:27;22.27;81.61
68556;HTU21D;55544;51.032;5.866;2023-07-28T08:54:53;22.27;80.83
68556;HTU21D;55544;51.032;5.866;2023-07-28T08:57:19;22.27;81.79
68556;HTU21D;55544;51.032;5.866;2023-07-28T08:59:46;22.38;81.41
68556;HTU21D;55544;51.032;5.866;2023-07-28T09:02:17;22.50;82.10
68556;HTU21D;55544;51.032;5.866;2023-07-28T09:04:47;22.68;81.27
68556;HTU21D;55544;51.032;5.866;2023-07-28T09:07:13;22.87;80.62
68556;HTU21D;55544;51.032;5.866;2023-07-28T09:09:40;23.01;79.41
68556;HTU21D;55544;51.032;5.866;2023-07-28T09:12:09;23.03;78.56
68556;HTU21D;55544;51.032;5.866;2023-07-28T09:14:37;22.99;78.42
68556;HTU21D;55544;51.032;5.866;2023-07-28T09:17:11;22.79;77.83
68556;HTU21D;55544;51.032;5.866;2023-07-28T09:19:58;22.66;77.60
68556;HTU21D;55544;51.032;5.866;2023-07-28T09:22:24;22.55;78.97
68556;HTU21D;55544;51.032;5.866;2023-07-28T09:24:51;22.76;79.99
68556;HTU21D;55544;51.032;5.866;2023-07-28T09:27:26;23.06;79.13
68556;HTU21D;55544;51.032;5.866;2023-07-28T09:29:55;23.26;78.15
68556;HTU21D;55544;51.032;5.866;2023-07-28T09:32:30;23.31;77.15
68556;HTU21D;55544;51.032;5.866;2023-07-28T09:35:09;23.25;76.32
68556;HTU21D;55544;51.032;5.866;2023-07-28T09:37:43;23.08;76.36
68556;HTU21D;55544;51.032;5.866;2023-07-28T09:40:12;22.94;77.56
68556;HTU21D;55544;51.032;5.866;2023-07-28T09:42:42;22.87;78.77
68556;HTU21D;55544;51.032;5.866;2023-07-28T09:45:09;22.80;78.58
68556;HTU21D;55544;51.032;5.866;2023-07-28T09:47:37;22.77;79.13
68556;HTU21D;55544;51.032;5.866;2023-07-28T09:50:05;22.66;78.89
68556;HTU21D;55544;51.032;5.866;2023-07-28T09:52:37;22.49;79.20
68556;HTU21D;55544;51.032;5.866;2023-07-28T09:55:09;22.46;80.50
68556;HTU21D;55544;51.032;5.866;2023-07-28T09:57:45;22.49;80.56
68556;HTU21D;55544;51.032;5.866;2023-07-28T10:00:13;22.58;81.04
68556;HTU21D;55544;51.032;5.866;2023-07-28T10:02:40;22.86;80.85
68556;HTU21D;55544;51.032;5.866;2023-07-28T10:05:07;23.08;80.80
68556;HTU21D;55544;51.032;5.866;2023-07-28T10:07:37;23.36;79.09
68556;HTU21D;55544;51.032;5.866;2023-07-28T10:10:06;23.37;77.72
68556;HTU21D;55544;51.032;5.866;2023-07-28T10:12:47;23.32;77.37
68556;HTU21D;55544;51.032;5.866;2023-07-28T10:15:16;23.27;77.35
68556;HTU21D;55544;51.032;5.866;2023-07-28T10:17:50;23.25;77.99
68556;HTU21D;55544;51.032;5.866;2023-07-28T10:20:37;23.24;77.21
68556;HTU21D;55544;51.032;5.866;2023-07-28T10:25:33;23.10;77.55
68556;HTU21D;55544;51.032;5.866;2023-07-28T10:28:00;23.01;78.13
68556;HTU21D;55544;51.032;5.866;2023-07-28T10:30:28;23.01;78.43
68556;HTU21D;55544;51.032;5.866;2023-07-28T10:32:55;22.98;77.64
68556;HTU21D;55544;51.032;5.866;2023-07-28T10:35:27;22.95;77.96
68556;HTU21D;55544;51.032;5.866;2023-07-28T10:37:54;23.07;78.17
68556;HTU21D;55544;51.032;5.866;2023-07-28T10:40:31;23.20;77.81
68556;HTU21D;55544;51.032;5.866;2023-07-28T10:43:02;23.39;77.72
68556;HTU21D;55544;51.032;5.866;2023-07-28T10:45:30;23.57;77.09
68556;HTU21D;55544;51.032;5.866;2023-07-28T10:47:57;23.54;76.31
68556;HTU21D;55544;51.032;5.866;2023-07-28T10:50:29;23.50;76.02
68556;HTU21D;55544;51.032;5.866;2023-07-28T10:52:56;23.41;75.77
68556;HTU21D;55544;51.032;5.866;2023-07-28T10:55:24;23.22;75.72
68556;HTU21D;55544;51.032;5.866;2023-07-28T10:57:51;23.08;76.01
68556;HTU21D;55544;51.032;5.866;2023-07-28T11:00:20;22.99;77.08
68556;HTU21D;55544;51.032;5.866;2023-07-28T11:02:53;23.02;77.83
68556;HTU21D;55544;51.032;5.866;2023-07-28T11:05:21;23.06;78.09
68556;HTU21D;55544;51.032;5.866;2023-07-28T11:07:48;23.07;77.63
68556;HTU21D;55544;51.032;5.866;2023-07-28T11:10:14;23.06;77.18
68556;HTU21D;55544;51.032;5.866;2023-07-28T11:12:44;22.88;77.27
68556;HTU21D;55544;51.032;5.866;2023-07-28T11:15:12;22.77;78.10
68556;HTU21D;55544;51.032;5.866;2023-07-28T11:17:39;22.61;79.11
68556;HTU21D;55544;51.032;5.866;2023-07-28T11:22:41;22.35;80.11
68556;HTU21D;55544;51.032;5.866;2023-07-28T11:25:06;22.24;80.65
68556;HTU21D;55544;51.032;5.866;2023-07-28T11:27:36;22.28;81.44
68556;HTU21D;55544;51.032;5.866;2023-07-28T11:30:02;22.20;81.86
68556;HTU21D;55544;51.032;5.866;2023-07-28T11:32:35;22.25;82.55
68556;HTU21D;55544;51.032;5.866;2023-07-28T11:35:20;22.23;82.35
68556;HTU21D;55544;51.032;5.866;2023-07-28T11:37:50;22.20;83.09
68556;HTU21D;55544;51.032;5.866;2023-07-28T11:40:18;22.36;84.37
68556;HTU21D;55544;51.032;5.866;2023-07-28T11:42:53;22.43;83.14
68556;HTU21D;55544;51.032;5.866;2023-07-28T11:45:20;22.39;82.66
68556;HTU21D;55544;51.032;5.866;2023-07-28T11:50:28;22.37;83.06
68556;HTU21D;55544;51.032;5.866;2023-07-28T11:52:57;22.32;83.05
68556;HTU21D;55544;51.032;5.866;2023-07-28T11:55:24;22.34;83.46
68556;HTU21D;55544;51.032;5.866;2023-07-28T11:57:52;22.37;83.55
68556;HTU21D;55544;51.032;5.866;2023-07-28T12:00:18;22.40;83.45
68556;HTU21D;55544;51.032;5.866;2023-07-28T12:03:03;22.49;84.11
68556;HTU21D;55544;51.032;5.866;2023-07-28T12:05:30;22.51;83.79
68556;HTU21D;55544;51.032;5.866;2023-07-28T12:07:55;22.64;83.76
68556;HTU21D;55544;51.032;5.866;2023-07-28T12:10:21;22.70;83.39
68556;HTU21D;55544;51.032;5.866;2023-07-28T12:12:48;22.70;83.03
68556;HTU21D;55544;51.032;5.866;2023-07-28T12:15:28;22.68;83.45
68556;HTU21D;55544;51.032;5.866;2023-07-28T12:20:49;22.68;83.11
68556;HTU21D;55544;51.032;5.866;2023-07-28T12:23:17;22.67;83.63
68556;HTU21D;55544;51.032;5.866;2023-07-28T12:25:43;22.61;83.44
68556;HTU21D;55544;51.032;5.866;2023-07-28T12:28:10;22.51;83.71
68556;HTU21D;55544;51.032;5.866;2023-07-28T12:30:37;22.42;83.73
68556;HTU21D;55544;51.032;5.866;2023-07-28T12:33:04;22.44;84.61
68556;HTU21D;55544;51.032;5.866;2023-07-28T12:35:31;22.56;84.74
68556;HTU21D;55544;51.032;5.866;2023-07-28T12:38:01;22.69;84.82
68556;HTU21D;55544;51.032;5.866;2023-07-28T12:40:28;22.85;84.48
68556;HTU21D;55544;51.032;5.866;2023-07-28T12:42:58;23.05;84.03
68556;HTU21D;55544;51.032;5.866;2023-07-28T12:45:24;23.20;82.81
68556;HTU21D;55544;51.032;5.866;2023-07-28T12:47:52;23.38;83.39
68556;HTU21D;55544;51.032;5.866;2023-07-28T12:50:19;23.58;83.52
68556;HTU21D;55544;51.032;5.866;2023-07-28T12:52:47;23.70;82.42
68556;HTU21D;55544;51.032;5.866;2023-07-28T12:55:13;23.82;81.83
68556;HTU21D;55544;51.032;5.866;2023-07-28T12:57:39;24.10;82.33
68556;HTU21D;55544;51.032;5.866;2023-07-28T13:00:06;24.40;81.04
68556;HTU21D;55544;51.032;5.866;2023-07-28T13:02:44;24.41;78.92
68556;HTU21D;55544;51.032;5.866;2023-07-28T13:05:11;24.38;78.82
68556;HTU21D;55544;51.032;5.866;2023-07-28T13:07:38;24.32;77.98
68556;HTU21D;55544;51.032;5.866;2023-07-28T13:10:05;24.28;78.90
68556;HTU21D;55544;51.032;5.866;2023-07-28T13:12:31;24.27;79.14
68556;HTU21D;55544;51.032;5.866;2023-07-28T13:14:57;24.16;78.32
68556;HTU21D;55544;51.032;5.866;2023-07-28T13:17:22;23.98;77.43
68556;HTU21D;55544;51.032;5.866;2023-07-28T13:19:48;23.80;77.43
68556;HTU21D;55544;51.032;5.866;2023-07-28T13:22:14;23.67;76.87
68556;HTU21D;55544;51.032;5.866;2023-07-28T13:24:39;23.55;76.92
68556;HTU21D;55544;51.032;5.866;2023-07-28T13:27:07;23.44;77.08
68556;HTU21D;55544;51.032;5.866;2023-07-28T13:29:33;23.22;77.61
68556;HTU21D;55544;51.032;5.866;2023-07-28T13:31:59;23.10;79.00
68556;HTU21D;55544;51.032;5.866;2023-07-28T13:34:28;22.98;79.98
68556;HTU21D;55544;51.032;5.866;2023-07-28T13:36:55;23.01;80.62
68556;HTU21D;55544;51.032;5.866;2023-07-28T13:39:22;23.06;80.65
68556;HTU21D;55544;51.032;5.866;2023-07-28T13:41:48;23.00;80.12
68556;HTU21D;55544;51.032;5.866;2023-07-28T13:44:13;22.96;80.54
68556;HTU21D;55544;51.032;5.866;2023-07-28T13:46:39;22.85;80.69
68556;HTU21D;55544;51.032;5.866;2023-07-28T13:49:06;22.73;81.08
68556;HTU21D;55544;51.032;5.866;2023-07-28T13:51:32;22.63;81.38
68556;HTU21D;55544;51.032;5.866;2023-07-28T13:53:58;22.42;81.61
68556;HTU21D;55544;51.032;5.866;2023-07-28T13:56:24;22.36;82.10
68556;HTU21D;55544;51.032;5.866;2023-07-28T13:58:50;22.29;82.93
68556;HTU21D;55544;51.032;5.866;2023-07-28T14:01:15;22.26;82.92
68556;HTU21D;55544;51.032;5.866;2023-07-28T14:03:41;22.21;82.58
68556;HTU21D;55544;51.032;5.866;2023-07-28T14:06:07;22.13;83.09
68556;HTU21D;55544;51.032;5.866;2023-07-28T14:08:33;22.19;83.40
68556;HTU21D;55544;51.032;5.866;2023-07-28T14:10:59;22.21;83.31
68556;HTU21D;55544;51.032;5.866;2023-07-28T14:13:24;22.21;83.56
68556;HTU21D;55544;51.032;5.866;2023-07-28T14:15:50;22.25;83.56
68556;HTU21D;55544;51.032;5.866;2023-07-28T14:18:17;22.34;83.94
68556;HTU21D;55544;51.032;5.866;2023-07-28T14:20:42;22.43;84.26
68556;HTU21D;55544;51.032;5.866;2023-07-28T14:23:26;22.62;84.02
68556;HTU21D;55544;51.032;5.866;2023-07-28T14:25:52;22.76;83.17
68556;HTU21D;55544;51.032;5.866;2023-07-28T14:28:21;22.79;82.71
68556;HTU21D;55544;51.032;5.866;2023-07-28T14:30:47;22.88;82.58
68556;HTU21D;55544;51.032;5.866;2023-07-28T14:33:17;23.07;82.38
68556;HTU21D;55544;51.032;5.866;2023-07-28T14:35:44;23.23;82.44
68556;HTU21D;55544;51.032;5.866;2023-07-28T14:38:11;23.56;82.58
68556;HTU21D;55544;51.032;5.866;2023-07-28T14:40:37;23.97;80.81
68556;HTU21D;55544;51.032;5.866;2023-07-28T14:43:08;24.32;79.85
68556;HTU21D;55544;51.032;5.866;2023-07-28T14:45:34;24.64;79.66
68556;HTU21D;55544;51.032;5.866;2023-07-28T14:48:01;25.05;78.35
68556;HTU21D;55544;51.032;5.866;2023-07-28T14:50:27;25.29;76.32
68556;HTU21D;55544;51.032;5.866;2023-07-28T14:52:53;25.51;74.54
68556;HTU21D;55544;51.032;5.866;2023-07-28T14:55:18;25.76;74.04
68556;HTU21D;55544;51.032;5.866;2023-07-28T14:57:44;26.09;73.97
68556;HTU21D;55544;51.032;5.866;2023-07-28T15:00:10;26.25;71.84
68556;HTU21D;55544;51.032;5.866;2023-07-28T15:02:36;26.20;70.31
68556;HTU21D;55544;51.032;5.866;2023-07-28T15:05:02;26.23;70.45
68556;HTU21D;55544;51.032;5.866;2023-07-28T15:07:28;26.45;71.26
68556;HTU21D;55544;51.032;5.866;2023-07-28T15:09:54;26.65;70.27
68556;HTU21D;55544;51.032;5.866;2023-07-28T15:12:19;26.60;68.12
68556;HTU21D;55544;51.032;5.866;2023-07-28T15:14:45;26.45;68.16
68556;HTU21D;55544;51.032;5.866;2023-07-28T15:17:11;26.48;68.73
68556;HTU21D;55544;51.032;5.866;2023-07-28T15:19:37;26.60;67.92
68556;HTU21D;55544;51.032;5.866;2023-07-28T15:22:02;26.68;67.47
68556;HTU21D;55544;51.032;5.866;2023-07-28T15:24:28;26.73;66.08
68556;HTU21D;55544;51.032;5.866;2023-07-28T15:26:54;26.68;66.32
68556;HTU21D;55544;51.032;5.866;2023-07-28T15:29:20;26.70;66.33
68556;HTU21D;55544;51.032;5.866;2023-07-28T15:31:45;26.78;67.06
68556;HTU21D;55544;51.032;5.866;2023-07-28T15:34:11;26.89;67.25